sensor_id;sensor_type;location;lat;lon;timestamp;temperature;humidity
7159;DHT22;63175;52.374;13.132;2022-09-09T00:00:19;16.80;99.90
7159;DHT22;63175;52.374;13.132;2022-09-09T00:02:51;16.80;99.90
7159;DHT22;63175;52.374;13.132;2022-09-09T00:05:26;16.70;99.90
7159;DHT22;63175;52.374;13.132;2022-09-09T00:07:58;16.80;99.90
7159;DHT22;63175;52.374;13.132;2022-09-09T00:10:29;16.70;99.90
7159;DHT22;63175;52.374;13.132;2022-09-09T00:13:02;16.70;99.90
7159;DHT22;63175;52.374;13.132;2022-09-09T00:15:35;16.70;99.90
7159;DHT22;63175;52.374;13.132;2022-09-09T00:18:11;16.70;99.90
7159;DHT22;63175;52.374;13.132;2022-09-09T00:20:45;16.70;99.90
7159;DHT22;63175;52.374;13.132;2022-09-09T00:23:22;16.60;99.90
7159;DHT22;63175;52.374;13.132;2022-09-09T00:25:58;16.60;99.90
7159;DHT22;63175;52.374;13.132;2022-09-09T00:28:28;16.60;99.90
7159;DHT22;63175;52.374;13.132;2022-09-09T00:30:59;16.50;99.90
7159;DHT22;63175;52.374;13.132;2022-09-09T00:33:30;16.50;99.90
7159;DHT22;63175;52.374;13.132;2022-09-09T00:35:58;16.50;99.90
7159;DHT22;63175;52.374;13.132;2022-09-09T00:38:31;16.50;99.90
7159;DHT22;63175;52.374;13.132;2022-09-09T00:41:03;16.50;99.90
7159;DHT22;63175;52.374;13.132;2022-09-09T00:43:36;16.50;99.90
7159;DHT22;63175;52.374;13.132;2022-09-09T00:46:32;16.40;99.90
7159;DHT22;63175;52.374;13.132;2022-09-09T00:49:09;16.50;99.90
7159;DHT22;63175;52.374;13.132;2022-09-09T00:51:48;16.40;99.90
7159;DHT22;63175;52.374;13.132;2022-09-09T00:54:32;16.40;99.90
7159;DHT22;63175;52.374;13.132;2022-09-09T00:57:12;16.40;99.90
7159;DHT22;63175;52.374;13.132;2022-09-09T00:59:47;16.30;99.90
7159;DHT22;63175;52.374;13.132;2022-09-09T01:02:26;16.40;99.90
7159;DHT22;63175;52.374;13.132;2022-09-09T01:04:54;16.30;99.90
7159;DHT22;63175;52.374;13.132;2022-09-09T01:07:21;16.30;99.90
7159;DHT22;63175;52.374;13.132;2022-09-09T01:09:54;16.30;99.90
7159;DHT22;63175;52.374;13.132;2022-09-09T01:12:29;16.20;99.90
7159;DHT22;63175;52.374;13.132;2022-09-09T01:15:08;16.30;99.90
7159;DHT22;63175;52.374;13.132;2022-09-09T01:17:44;16.20;99.90
7159;DHT22;63175;52.374;13.132;2022-09-09T01:20:17;16.20;99.90
7159;DHT22;63175;52.374;13.132;2022-09-09T01:22:52;16.20;99.90
7159;DHT22;63175;52.374;13.132;2022-09-09T01:28:22;16.20;99.90
7159;DHT22;63175;52.374;13.132;2022-09-09T01:30:50;16.20;99.90
7159;DHT22;63175;52.374;13.132;2022-09-09T01:33:18;16.20;99.90
7159;DHT22;63175;52.374;13.132;2022-09-09T01:35:49;16.20;99.90
7159;DHT22;63175;52.374;13.132;2022-09-09T01:38:17;16.20;99.90
7159;DHT22;63175;52.374;13.132;2022-09-09T01:40:44;16.20;99.90
7159;DHT22;63175;52.374;13.132;2022-09-09T01:43:11;16.20;99.90
7159;DHT22;63175;52.374;13.132;2022-09-09T01:45:41;16.10;99.90
7159;DHT22;63175;52.374;13.132;2022-09-09T01:48:08;16.20;99.90
7159;DHT22;63175;52.374;13.132;2022-09-09T01:50:35;16.20;99.90
7159;DHT22;63175;52.374;13.132;2022-09-09T01:53:03;16.10;99.90
7159;DHT22;63175;52.374;13.132;2022-09-09T01:55:32;16.10;99.90
7159;DHT22;63175;52.374;13.132;2022-09-09T01:58:13;16.10;99.90
7159;DHT22;63175;52.374;13.132;2022-09-09T02:00:46;16.10;99.90
7159;DHT22;63175;52.374;13.132;2022-09-09T02:03:20;16.10;99.90
7159;DHT22;63175;52.374;13.132;2022-09-09T02:05:55;16.10;99.90
7159;DHT22;63175;52.374;13.132;2022-09-09T02:08:31;16.00;99.90
7159;DHT22;63175;52.374;13.132;2022-09-09T02:11:03;16.00;99.90
7159;DHT22;63175;52.374;13.132;2022-09-09T02:13:32;16.00;99.90
7159;DHT22;63175;52.374;13.132;2022-09-09T02:16:07;16.00;99.90
7159;DHT22;63175;52.374;13.132;2022-09-09T02:18:38;16.00;99.90
7159;DHT22;63175;52.374;13.132;2022-09-09T02:21:07;15.90;99.90
7159;DHT22;63175;52.374;13.132;2022-09-09T02:23:35;15.90;99.90
7159;DHT22;63175;52.374;13.132;2022-09-09T02:26:03;15.90;99.90
7159;DHT22;63175;52.374;13.132;2022-09-09T02:28:32;15.90;99.90
7159;DHT22;63175;52.374;13.132;2022-09-09T02:31:01;15.90;99.90
7159;DHT22;63175;52.374;13.132;2022-09-09T02:33:32;15.80;99.90
7159;DHT22;63175;52.374;13.132;2022-09-09T02:36:01;15.80;99.90
7159;DHT22;63175;52.374;13.132;2022-09-09T02:38:34;15.80;99.90
7159;DHT22;63175;52.374;13.132;2022-09-09T02:41:03;15.80;99.90
7159;DHT22;63175;52.374;13.132;2022-09-09T02:43:31;15.80;99.90
7159;DHT22;63175;52.374;13.132;2022-09-09T02:46:04;15.80;99.90
7159;DHT22;63175;52.374;13.132;2022-09-09T02:48:38;15.70;99.90
7159;DHT22;63175;52.374;13.132;2022-09-09T02:51:17;15.70;99.90
7159;DHT22;63175;52.374;13.132;2022-09-09T02:53:49;15.70;99.90
7159;DHT22;63175;52.374;13.132;2022-09-09T02:56:19;15.70;99.90
7159;DHT22;63175;52.374;13.132;2022-09-09T02:58:47;15.70;99.90
7159;DHT22;63175;52.374;13.132;2022-09-09T03:01:15;15.70;99.90
7159;DHT22;63175;52.374;13.132;2022-09-09T03:03:44;15.70;99.90
7159;DHT22;63175;52.374;13.132;2022-09-09T03:06:12;15.70;99.90
7159;DHT22;63175;52.374;13.132;2022-09-09T03:08:39;15.70;99.90
7159;DHT22;63175;52.374;13.132;2022-09-09T03:11:12;15.70;99.90
7159;DHT22;63175;52.374;13.132;2022-09-09T03:13:40;15.60;99.90
7159;DHT22;63175;52.374;13.132;2022-09-09T03:16:06;15.60;99.90
7159;DHT22;63175;52.374;13.132;2022-09-09T03:18:33;15.60;99.90
7159;DHT22;63175;52.374;13.132;2022-09-09T03:21:01;15.60;99.90
7159;DHT22;63175;52.374;13.132;2022-09-09T03:23:28;15.60;99.90
7159;DHT22;63175;52.374;13.132;2022-09-09T03:25:55;15.60;99.90
7159;DHT22;63175;52.374;13.132;2022-09-09T03:28:24;15.60;99.90
7159;DHT22;63175;52.374;13.132;2022-09-09T03:30:58;15.60;99.90
7159;DHT22;63175;52.374;13.132;2022-09-09T03:33:25;15.60;99.90
7159;DHT22;63175;52.374;13.132;2022-09-09T03:35:53;15.60;99.90
7159;DHT22;63175;52.374;13.132;2022-09-09T03:38:23;15.60;99.90
7159;DHT22;63175;52.374;13.132;2022-09-09T03:40:50;15.60;99.90
7159;DHT22;63175;52.374;13.132;2022-09-09T03:43:20;15.60;99.90
7159;DHT22;63175;52.374;13.132;2022-09-09T03:45:48;15.60;99.90
7159;DHT22;63175;52.374;13.132;2022-09-09T03:48:15;15.60;99.90
7159;DHT22;63175;52.374;13.132;2022-09-09T03:50:44;15.60;99.90
7159;DHT22;63175;52.374;13.132;2022-09-09T03:53:11;15.50;99.90
7159;DHT22;63175;52.374;13.132;2022-09-09T03:55:39;15.60;99.90
7159;DHT22;63175;52.374;13.132;2022-09-09T03:58:09;15.60;99.90
7159;DHT22;63175;52.374;13.132;2022-09-09T04:00:36;15.60;99.90
7159;DHT22;63175;52.374;13.132;2022-09-09T04:03:08;15.50;99.90
7159;DHT22;63175;52.374;13.132;2022-09-09T04:05:35;15.50;99.90
7159;DHT22;63175;52.374;13.132;2022-09-09T04:08:05;15.50;99.90
7159;DHT22;63175;52.374;13.132;2022-09-09T04:10:32;15.50;99.90
7159;DHT22;63175;52.374;13.132;2022-09-09T04:13:00;15.50;99.90
7159;DHT22;63175;52.374;13.132;2022-09-09T04:15:27;15.50;99.90
7159;DHT22;63175;52.374;13.132;2022-09-09T04:17:54;15.40;99.90
7159;DHT22;63175;52.374;13.132;2022-09-09T04:20:22;15.50;99.90
7159;DHT22;63175;52.374;13.132;2022-09-09T04:22:49;15.40;99.90
7159;DHT22;63175;52.374;13.132;2022-09-09T04:25:15;15.40;99.90
7159;DHT22;63175;52.374;13.132;2022-09-09T04:27:42;15.40;99.90
7159;DHT22;63175;52.374;13.132;2022-09-09T04:30:11;15.40;99.90
7159;DHT22;63175;52.374;13.132;2022-09-09T04:32:38;15.30;99.90
7159;DHT22;63175;52.374;13.132;2022-09-09T04:35:06;15.30;99.90
7159;DHT22;63175;52.374;13.132;2022-09-09T04:37:33;15.30;99.90
7159;DHT22;63175;52.374;13.132;2022-09-09T04:40:00;15.30;99.90
7159;DHT22;63175;52.374;13.132;2022-09-09T04:42:27;15.20;99.90
7159;DHT22;63175;52.374;13.132;2022-09-09T04:44:54;15.30;99.90
7159;DHT22;63175;52.374;13.132;2022-09-09T04:47:23;15.30;99.90
7159;DHT22;63175;52.374;13.132;2022-09-09T04:49:49;15.30;99.90
7159;DHT22;63175;52.374;13.132;2022-09-09T04:52:17;15.20;99.90
7159;DHT22;63175;52.374;13.132;2022-09-09T04:54:43;15.20;99.90
7159;DHT22;63175;52.374;13.132;2022-09-09T04:57:11;15.20;99.90
7159;DHT22;63175;52.374;13.132;2022-09-09T04:59:38;15.20;99.90
7159;DHT22;63175;52.374;13.132;2022-09-09T05:02:06;15.20;99.90
7159;DHT22;63175;52.374;13.132;2022-09-09T05:04:34;15.20;99.90
7159;DHT22;63175;52.374;13.132;2022-09-09T05:07:01;15.20;99.90
7159;DHT22;63175;52.374;13.132;2022-09-09T05:09:28;15.20;99.90
7159;DHT22;63175;52.374;13.132;2022-09-09T05:11:55;15.20;99.90
7159;DHT22;63175;52.374;13.132;2022-09-09T05:14:22;15.30;99.90
7159;DHT22;63175;52.374;13.132;2022-09-09T05:16:49;15.30;99.90
7159;DHT22;63175;52.374;13.132;2022-09-09T05:19:16;15.30;99.90
7159;DHT22;63175;52.374;13.132;2022-09-09T05:21:46;15.20;99.90
7159;DHT22;63175;52.374;13.132;2022-09-09T05:24:13;15.30;99.90
7159;DHT22;63175;52.374;13.132;2022-09-09T05:26:40;15.30;99.90
7159;DHT22;63175;52.374;13.132;2022-09-09T05:29:07;15.30;99.90
7159;DHT22;63175;52.374;13.132;2022-09-09T05:31:34;15.30;99.90
7159;DHT22;63175;52.374;13.132;2022-09-09T05:34:01;15.30;99.90
7159;DHT22;63175;52.374;13.132;2022-09-09T05:36:28;15.40;99.90
7159;DHT22;63175;52.374;13.132;2022-09-09T05:38:56;15.40;99.90
7159;DHT22;63175;52.374;13.132;2022-09-09T05:41:23;15.40;99.90
7159;DHT22;63175;52.374;13.132;2022-09-09T05:43:50;15.40;99.90
7159;DHT22;63175;52.374;13.132;2022-09-09T05:46:18;15.50;99.90
7159;DHT22;63175;52.374;13.132;2022-09-09T05:48:47;15.50;99.90
7159;DHT22;63175;52.374;13.132;2022-09-09T05:51:17;15.50;99.90
7159;DHT22;63175;52.374;13.132;2022-09-09T05:53:45;15.50;99.90
7159;DHT22;63175;52.374;13.132;2022-09-09T05:56:15;15.60;99.90
7159;DHT22;63175;52.374;13.132;2022-09-09T05:58:44;15.60;99.90
7159;DHT22;63175;52.374;13.132;2022-09-09T06:01:14;15.70;99.90
7159;DHT22;63175;52.374;13.132;2022-09-09T06:03:43;15.70;99.90
7159;DHT22;63175;52.374;13.132;2022-09-09T06:06:11;15.80;99.90
7159;DHT22;63175;52.374;13.132;2022-09-09T06:08:40;15.80;99.90
7159;DHT22;63175;52.374;13.132;2022-09-09T06:11:09;15.80;99.90
7159;DHT22;63175;52.374;13.132;2022-09-09T06:13:38;15.90;99.90
7159;DHT22;63175;52.374;13.132;2022-09-09T06:16:05;16.00;99.90
7159;DHT22;63175;52.374;13.132;2022-09-09T06:18:33;16.00;99.90
7159;DHT22;63175;52.374;13.132;2022-09-09T06:21:01;16.10;99.90
7159;DHT22;63175;52.374;13.132;2022-09-09T06:23:29;16.10;99.90
7159;DHT22;63175;52.374;13.132;2022-09-09T06:26:04;16.10;99.90
7159;DHT22;63175;52.374;13.132;2022-09-09T06:28:31;16.10;99.90
7159;DHT22;63175;52.374;13.132;2022-09-09T06:31:01;16.00;99.90
7159;DHT22;63175;52.374;13.132;2022-09-09T06:33:31;16.00;99.90
7159;DHT22;63175;52.374;13.132;2022-09-09T06:36:00;16.00;99.90
7159;DHT22;63175;52.374;13.132;2022-09-09T06:38:27;16.10;99.90
7159;DHT22;63175;52.374;13.132;2022-09-09T06:40:54;16.20;99.90
7159;DHT22;63175;52.374;13.132;2022-09-09T06:43:23;16.40;99.90
7159;DHT22;63175;52.374;13.132;2022-09-09T06:45:54;16.50;99.90
7159;DHT22;63175;52.374;13.132;2022-09-09T06:48:23;16.60;99.90
7159;DHT22;63175;52.374;13.132;2022-09-09T06:50:51;16.70;99.90
7159;DHT22;63175;52.374;13.132;2022-09-09T06:53:19;16.90;99.90
7159;DHT22;63175;52.374;13.132;2022-09-09T06:55:46;17.00;99.90
7159;DHT22;63175;52.374;13.132;2022-09-09T06:58:13;17.10;99.90
7159;DHT22;63175;52.374;13.132;2022-09-09T07:00:42;17.20;99.90
7159;DHT22;63175;52.374;13.132;2022-09-09T07:03:12;17.30;99.90
7159;DHT22;63175;52.374;13.132;2022-09-09T07:05:42;17.50;99.90
7159;DHT22;63175;52.374;13.132;2022-09-09T07:08:11;17.60;99.90
7159;DHT22;63175;52.374;13.132;2022-09-09T07:10:47;17.80;99.90
7159;DHT22;63175;52.374;13.132;2022-09-09T07:13:15;17.90;99.90
7159;DHT22;63175;52.374;13.132;2022-09-09T07:15:42;18.10;99.90
7159;DHT22;63175;52.374;13.132;2022-09-09T07:18:10;18.20;99.90
7159;DHT22;63175;52.374;13.132;2022-09-09T07:20:38;18.30;99.90
7159;DHT22;63175;52.374;13.132;2022-09-09T07:23:06;18.40;99.90
7159;DHT22;63175;52.374;13.132;2022-09-09T07:25:34;18.50;99.90
7159;DHT22;63175;52.374;13.132;2022-09-09T07:28:02;18.60;99.90
7159;DHT22;63175;52.374;13.132;2022-09-09T07:30:31;18.60;99.90
7159;DHT22;63175;52.374;13.132;2022-09-09T07:32:59;18.60;99.90
7159;DHT22;63175;52.374;13.132;2022-09-09T07:35:29;18.60;99.90
7159;DHT22;63175;52.374;13.132;2022-09-09T07:37:56;18.60;99.90
7159;DHT22;63175;52.374;13.132;2022-09-09T07:40:41;18.60;99.90
7159;DHT22;63175;52.374;13.132;2022-09-09T07:43:09;18.60;99.90
7159;DHT22;63175;52.374;13.132;2022-09-09T07:45:37;18.60;99.90
7159;DHT22;63175;52.374;13.132;2022-09-09T07:48:06;18.60;99.90
7159;DHT22;63175;52.374;13.132;2022-09-09T07:50:34;18.70;99.90
7159;DHT22;63175;52.374;13.132;2022-09-09T07:53:05;18.70;99.90
7159;DHT22;63175;52.374;13.132;2022-09-09T07:55:38;18.70;99.90
7159;DHT22;63175;52.374;13.132;2022-09-09T07:58:07;18.70;99.90
7159;DHT22;63175;52.374;13.132;2022-09-09T08:00:35;18.70;99.90
7159;DHT22;63175;52.374;13.132;2022-09-09T08:03:02;18.70;99.90
7159;DHT22;63175;52.374;13.132;2022-09-09T08:05:30;18.70;99.90
7159;DHT22;63175;52.374;13.132;2022-09-09T08:07:58;18.60;99.90
7159;DHT22;63175;52.374;13.132;2022-09-09T08:10:26;18.60;99.90
7159;DHT22;63175;52.374;13.132;2022-09-09T08:12:53;18.60;99.90
7159;DHT22;63175;52.374;13.132;2022-09-09T08:15:22;18.60;99.90
7159;DHT22;63175;52.374;13.132;2022-09-09T08:17:50;18.70;99.90
7159;DHT22;63175;52.374;13.132;2022-09-09T08:20:17;18.80;99.90
7159;DHT22;63175;52.374;13.132;2022-09-09T08:22:44;18.90;99.90
7159;DHT22;63175;52.374;13.132;2022-09-09T08:25:13;18.90;99.90
7159;DHT22;63175;52.374;13.132;2022-09-09T08:27:47;19.00;99.90
7159;DHT22;63175;52.374;13.132;2022-09-09T08:30:14;19.10;99.90
7159;DHT22;63175;52.374;13.132;2022-09-09T08:32:43;19.10;99.90
7159;DHT22;63175;52.374;13.132;2022-09-09T08:35:11;19.20;99.90
7159;DHT22;63175;52.374;13.132;2022-09-09T08:37:38;19.20;99.90
7159;DHT22;63175;52.374;13.132;2022-09-09T08:40:10;19.20;99.90
7159;DHT22;63175;52.374;13.132;2022-09-09T08:42:49;19.20;99.90
7159;DHT22;63175;52.374;13.132;2022-09-09T08:45:24;19.30;99.90
7159;DHT22;63175;52.374;13.132;2022-09-09T08:48:13;19.20;99.90
7159;DHT22;63175;52.374;13.132;2022-09-09T08:50:43;19.20;99.90
7159;DHT22;63175;52.374;13.132;2022-09-09T08:53:17;19.20;99.90
7159;DHT22;63175;52.374;13.132;2022-09-09T08:55:48;19.20;99.90
7159;DHT22;63175;52.374;13.132;2022-09-09T08:58:18;19.20;99.90
7159;DHT22;63175;52.374;13.132;2022-09-09T09:01:03;19.20;99.90
7159;DHT22;63175;52.374;13.132;2022-09-09T09:03:43;19.30;99.90
7159;DHT22;63175;52.374;13.132;2022-09-09T09:06:27;19.40;99.90
7159;DHT22;63175;52.374;13.132;2022-09-09T09:09:05;19.60;99.90
7159;DHT22;63175;52.374;13.132;2022-09-09T09:11:37;19.80;99.90
7159;DHT22;63175;52.374;13.132;2022-09-09T09:14:09;20.10;99.90
7159;DHT22;63175;52.374;13.132;2022-09-09T09:16:42;20.50;99.90
7159;DHT22;63175;52.374;13.132;2022-09-09T09:19:16;20.90;99.90
7159;DHT22;63175;52.374;13.132;2022-09-09T09:21:45;21.30;99.90
7159;DHT22;63175;52.374;13.132;2022-09-09T09:24:18;21.60;99.90
7159;DHT22;63175;52.374;13.132;2022-09-09T09:26:47;21.90;99.90
7159;DHT22;63175;52.374;13.132;2022-09-09T09:29:16;22.10;99.90
7159;DHT22;63175;52.374;13.132;2022-09-09T09:31:46;22.30;99.90
7159;DHT22;63175;52.374;13.132;2022-09-09T09:34:18;22.60;99.90
7159;DHT22;63175;52.374;13.132;2022-09-09T09:36:52;23.00;99.90
7159;DHT22;63175;52.374;13.132;2022-09-09T09:39:25;23.40;99.90
7159;DHT22;63175;52.374;13.132;2022-09-09T09:41:54;23.90;99.90
7159;DHT22;63175;52.374;13.132;2022-09-09T09:44:24;24.40;99.30
7159;DHT22;63175;52.374;13.132;2022-09-09T09:46:52;24.80;98.60
7159;DHT22;63175;52.374;13.132;2022-09-09T09:49:24;25.20;96.50
7159;DHT22;63175;52.374;13.132;2022-09-09T09:51:52;25.30;95.70
7159;DHT22;63175;52.374;13.132;2022-09-09T09:54:25;25.40;95.30
7159;DHT22;63175;52.374;13.132;2022-09-09T09:56:54;25.40;94.80
7159;DHT22;63175;52.374;13.132;2022-09-09T09:59:32;25.50;94.10
7159;DHT22;63175;52.374;13.132;2022-09-09T10:02:17;25.50;93.70
7159;DHT22;63175;52.374;13.132;2022-09-09T10:04:46;25.50;92.60
7159;DHT22;63175;52.374;13.132;2022-09-09T10:07:19;25.50;93.00
7159;DHT22;63175;52.374;13.132;2022-09-09T10:09:53;25.70;91.90
7159;DHT22;63175;52.374;13.132;2022-09-09T10:12:30;26.00;91.60
7159;DHT22;63175;52.374;13.132;2022-09-09T10:15:05;26.30;91.60
7159;DHT22;63175;52.374;13.132;2022-09-09T10:17:40;26.80;90.50
7159;DHT22;63175;52.374;13.132;2022-09-09T10:20:32;27.30;86.90
7159;DHT22;63175;52.374;13.132;2022-09-09T10:23:11;28.10;86.30
7159;DHT22;63175;52.374;13.132;2022-09-09T10:25:55;28.90;84.00
7159;DHT22;63175;52.374;13.132;2022-09-09T10:28:36;29.50;76.70
7159;DHT22;63175;52.374;13.132;2022-09-09T10:31:18;30.20;71.50
7159;DHT22;63175;52.374;13.132;2022-09-09T10:33:51;31.10;68.60
7159;DHT22;63175;52.374;13.132;2022-09-09T10:36:22;32.00;64.90
7159;DHT22;63175;52.374;13.132;2022-09-09T10:38:57;32.80;60.30
7159;DHT22;63175;52.374;13.132;2022-09-09T10:41:35;33.60;56.50
7159;DHT22;63175;52.374;13.132;2022-09-09T10:47:31;35.30;51.30
7159;DHT22;63175;52.374;13.132;2022-09-09T10:53:16;37.70;46.00
7159;DHT22;63175;52.374;13.132;2022-09-09T10:55:50;38.60;41.60
7159;DHT22;63175;52.374;13.132;2022-09-09T10:58:23;39.40;41.20
7159;DHT22;63175;52.374;13.132;2022-09-09T11:00:57;40.40;40.50
7159;DHT22;63175;52.374;13.132;2022-09-09T11:03:28;41.30;38.40
7159;DHT22;63175;52.374;13.132;2022-09-09T11:06:00;41.80;35.70
7159;DHT22;63175;52.374;13.132;2022-09-09T11:08:34;42.00;35.60
7159;DHT22;63175;52.374;13.132;2022-09-09T11:11:10;41.80;33.90
7159;DHT22;63175;52.374;13.132;2022-09-09T11:13:44;41.90;34.90
7159;DHT22;63175;52.374;13.132;2022-09-09T11:16:23;42.10;33.80
7159;DHT22;63175;52.374;13.132;2022-09-09T11:18:56;42.00;34.00
7159;DHT22;63175;52.374;13.132;2022-09-09T11:21:29;42.00;33.80
7159;DHT22;63175;52.374;13.132;2022-09-09T11:24:01;41.30;33.40
7159;DHT22;63175;52.374;13.132;2022-09-09T11:26:36;39.60;34.50
7159;DHT22;63175;52.374;13.132;2022-09-09T11:29:52;38.00;37.10
7159;DHT22;63175;52.374;13.132;2022-09-09T11:35:58;36.80;40.30
7159;DHT22;63175;52.374;13.132;2022-09-09T11:38:31;37.10;38.90
7159;DHT22;63175;52.374;13.132;2022-09-09T11:41:03;37.20;38.70
7159;DHT22;63175;52.374;13.132;2022-09-09T11:43:38;36.90;37.30
7159;DHT22;63175;52.374;13.132;2022-09-09T11:46:06;36.60;37.90
7159;DHT22;63175;52.374;13.132;2022-09-09T11:48:35;35.70;38.10
7159;DHT22;63175;52.374;13.132;2022-09-09T11:51:06;34.90;38.90
7159;DHT22;63175;52.374;13.132;2022-09-09T11:53:35;34.00;40.80
7159;DHT22;63175;52.374;13.132;2022-09-09T11:56:07;33.20;42.00
7159;DHT22;63175;52.374;13.132;2022-09-09T11:58:38;32.30;43.50
7159;DHT22;63175;52.374;13.132;2022-09-09T12:04:15;30.70;46.20
7159;DHT22;63175;52.374;13.132;2022-09-09T12:06:45;30.10;47.80
7159;DHT22;63175;52.374;13.132;2022-09-09T12:09:42;29.40;48.40
7159;DHT22;63175;52.374;13.132;2022-09-09T12:12:29;28.70;50.00
7159;DHT22;63175;52.374;13.132;2022-09-09T12:15:22;28.20;51.00
7159;DHT22;63175;52.374;13.132;2022-09-09T12:17:54;27.70;51.90
7159;DHT22;63175;52.374;13.132;2022-09-09T12:20:27;27.30;53.20
7159;DHT22;63175;52.374;13.132;2022-09-09T12:23:15;26.90;53.80
7159;DHT22;63175;52.374;13.132;2022-09-09T12:28:56;26.30;55.80
7159;DHT22;63175;52.374;13.132;2022-09-09T12:31:28;26.00;55.20
7159;DHT22;63175;52.374;13.132;2022-09-09T12:34:09;25.90;56.00
7159;DHT22;63175;52.374;13.132;2022-09-09T12:36:38;25.70;56.80
7159;DHT22;63175;52.374;13.132;2022-09-09T12:39:14;25.60;57.80
7159;DHT22;63175;52.374;13.132;2022-09-09T12:41:51;25.50;58.10
7159;DHT22;63175;52.374;13.132;2022-09-09T12:44:25;25.30;58.20
7159;DHT22;63175;52.374;13.132;2022-09-09T12:46:54;25.20;58.90
7159;DHT22;63175;52.374;13.132;2022-09-09T12:49:31;25.10;59.50
7159;DHT22;63175;52.374;13.132;2022-09-09T12:52:03;25.00;59.80
7159;DHT22;63175;52.374;13.132;2022-09-09T12:54:34;24.90;60.40
7159;DHT22;63175;52.374;13.132;2022-09-09T12:57:02;24.80;60.60
7159;DHT22;63175;52.374;13.132;2022-09-09T12:59:37;24.70;61.10
7159;DHT22;63175;52.374;13.132;2022-09-09T13:02:17;24.60;61.80
7159;DHT22;63175;52.374;13.132;2022-09-09T13:04:46;24.60;62.00
7159;DHT22;63175;52.374;13.132;2022-09-09T13:07:14;24.50;62.10
7159;DHT22;63175;52.374;13.132;2022-09-09T13:09:42;24.50;62.50
7159;DHT22;63175;52.374;13.132;2022-09-09T13:12:13;24.30;63.00
7159;DHT22;63175;52.374;13.132;2022-09-09T13:14:45;24.30;63.60
7159;DHT22;63175;52.374;13.132;2022-09-09T13:17:21;24.30;64.20
7159;DHT22;63175;52.374;13.132;2022-09-09T13:19:51;24.30;65.00
7159;DHT22;63175;52.374;13.132;2022-09-09T13:22:22;24.30;65.20
7159;DHT22;63175;52.374;13.132;2022-09-09T13:25:00;24.30;65.00
7159;DHT22;63175;52.374;13.132;2022-09-09T13:27:30;24.40;65.20
7159;DHT22;63175;52.374;13.132;2022-09-09T13:30:21;24.50;65.00
7159;DHT22;63175;52.374;13.132;2022-09-09T13:33:04;24.60;65.80
7159;DHT22;63175;52.374;13.132;2022-09-09T13:35:31;24.70;65.60
7159;DHT22;63175;52.374;13.132;2022-09-09T13:38:07;24.80;66.10
7159;DHT22;63175;52.374;13.132;2022-09-09T13:40:35;24.90;65.80
7159;DHT22;63175;52.374;13.132;2022-09-09T13:43:03;25.00;64.60
7159;DHT22;63175;52.374;13.132;2022-09-09T13:45:32;25.10;64.70
7159;DHT22;63175;52.374;13.132;2022-09-09T13:48:09;25.20;65.10
7159;DHT22;63175;52.374;13.132;2022-09-09T13:50:39;25.40;65.30
7159;DHT22;63175;52.374;13.132;2022-09-09T13:53:07;25.50;65.10
7159;DHT22;63175;52.374;13.132;2022-09-09T13:55:36;25.60;63.90
7159;DHT22;63175;52.374;13.132;2022-09-09T13:58:04;25.70;64.00
7159;DHT22;63175;52.374;13.132;2022-09-09T14:00:35;25.70;64.20
7159;DHT22;63175;52.374;13.132;2022-09-09T14:03:06;25.80;64.00
7159;DHT22;63175;52.374;13.132;2022-09-09T14:05:34;25.90;62.50
7159;DHT22;63175;52.374;13.132;2022-09-09T14:08:03;26.00;61.90
7159;DHT22;63175;52.374;13.132;2022-09-09T14:10:31;26.10;62.10
7159;DHT22;63175;52.374;13.132;2022-09-09T14:13:01;26.20;62.50
7159;DHT22;63175;52.374;13.132;2022-09-09T14:15:29;26.30;63.20
7159;DHT22;63175;52.374;13.132;2022-09-09T14:17:58;26.30;61.80
7159;DHT22;63175;52.374;13.132;2022-09-09T14:20:25;26.30;60.80
7159;DHT22;63175;52.374;13.132;2022-09-09T14:22:54;26.30;60.90
7159;DHT22;63175;52.374;13.132;2022-09-09T14:25:23;26.10;61.70
7159;DHT22;63175;52.374;13.132;2022-09-09T14:27:50;26.00;62.10
7159;DHT22;63175;52.374;13.132;2022-09-09T14:30:18;25.80;62.40
7159;DHT22;63175;52.374;13.132;2022-09-09T14:32:45;25.60;62.80
7159;DHT22;63175;52.374;13.132;2022-09-09T14:35:15;25.50;63.20
7159;DHT22;63175;52.374;13.132;2022-09-09T14:37:42;25.30;64.00
7159;DHT22;63175;52.374;13.132;2022-09-09T14:40:11;25.20;64.40
7159;DHT22;63175;52.374;13.132;2022-09-09T14:42:40;25.10;65.00
7159;DHT22;63175;52.374;13.132;2022-09-09T14:45:07;25.00;65.50
7159;DHT22;63175;52.374;13.132;2022-09-09T14:47:35;24.90;64.90
7159;DHT22;63175;52.374;13.132;2022-09-09T14:50:04;24.80;65.20
7159;DHT22;63175;52.374;13.132;2022-09-09T14:52:34;24.70;65.40
7159;DHT22;63175;52.374;13.132;2022-09-09T14:55:02;24.70;66.10
7159;DHT22;63175;52.374;13.132;2022-09-09T14:57:30;24.60;66.50
7159;DHT22;63175;52.374;13.132;2022-09-09T14:59:58;24.50;66.90
7159;DHT22;63175;52.374;13.132;2022-09-09T15:02:25;24.50;67.20
7159;DHT22;63175;52.374;13.132;2022-09-09T15:04:52;24.50;67.70
7159;DHT22;63175;52.374;13.132;2022-09-09T15:07:23;24.40;68.10
7159;DHT22;63175;52.374;13.132;2022-09-09T15:09:51;24.40;68.30
7159;DHT22;63175;52.374;13.132;2022-09-09T15:12:20;24.40;68.80
7159;DHT22;63175;52.374;13.132;2022-09-09T15:14:48;24.40;68.90
7159;DHT22;63175;52.374;13.132;2022-09-09T15:17:16;24.30;69.50
7159;DHT22;63175;52.374;13.132;2022-09-09T15:19:43;24.30;69.60
7159;DHT22;63175;52.374;13.132;2022-09-09T15:22:11;24.30;69.90
7159;DHT22;63175;52.374;13.132;2022-09-09T15:24:39;24.30;70.00
7159;DHT22;63175;52.374;13.132;2022-09-09T15:27:07;24.30;70.10
7159;DHT22;63175;52.374;13.132;2022-09-09T15:29:36;24.20;70.30
7159;DHT22;63175;52.374;13.132;2022-09-09T15:32:04;24.10;69.30
7159;DHT22;63175;52.374;13.132;2022-09-09T15:34:31;24.10;69.00
7159;DHT22;63175;52.374;13.132;2022-09-09T15:36:59;24.00;69.70
7159;DHT22;63175;52.374;13.132;2022-09-09T15:39:27;23.90;69.10
7159;DHT22;63175;52.374;13.132;2022-09-09T15:41:54;23.90;69.80
7159;DHT22;63175;52.374;13.132;2022-09-09T15:44:23;23.90;69.20
7159;DHT22;63175;52.374;13.132;2022-09-09T15:46:53;23.90;69.30
7159;DHT22;63175;52.374;13.132;2022-09-09T15:49:22;23.90;70.10
7159;DHT22;63175;52.374;13.132;2022-09-09T15:51:52;23.90;69.30
7159;DHT22;63175;52.374;13.132;2022-09-09T15:54:21;23.80;70.10
7159;DHT22;63175;52.374;13.132;2022-09-09T15:56:51;23.80;69.50
7159;DHT22;63175;52.374;13.132;2022-09-09T15:59:21;23.80;69.60
7159;DHT22;63175;52.374;13.132;2022-09-09T16:01:50;23.80;69.70
7159;DHT22;63175;52.374;13.132;2022-09-09T16:04:17;23.80;70.20
7159;DHT22;63175;52.374;13.132;2022-09-09T16:06:49;23.80;70.20
7159;DHT22;63175;52.374;13.132;2022-09-09T16:09:18;23.80;70.40
7159;DHT22;63175;52.374;13.132;2022-09-09T16:11:46;23.80;70.70